CDT,Max TemperatureF,Mean TemperatureF,Min TemperatureF,Max Dew PointF,MeanDew PointF,Min DewpointF,Max Humidity, Mean Humidity, Min Humidity, Max Sea Level PressureIn, Mean Sea Level PressureIn, Min Sea Level PressureIn, Max VisibilityMiles, Mean VisibilityMiles, Min VisibilityMiles, Max Wind SpeedMPH, Mean Wind SpeedMPH, Max Gust SpeedMPH,PrecipitationIn, CloudCover, Events, WindDirDegrees
2012-9-1,78,74,69,68,64,54,83,70,53,29.99,29.96,29.93,10,10,7,16,9,21,0.00,4,,35
2012-9-2,87,74,62,70,63,54,83,69,55,29.98,29.94,29.89,10,10,7,10,6,16,0.00,3,,40
2012-9-3,87,76,66,72,68,63,88,75,55,29.98,29.93,29.87,10,8,2,10,2,,0.00,0,Rain,121
2012-9-4,93,81,69,72,70,66,88,70,41,29.90,29.86,29.78,10,9,1,8,3,,0.00,1,,168
2012-9-5,89,76,64,68,61,55,88,63,33,29.91,29.84,29.77,10,10,7,31,9,37,0.00,1,Rain,315
2012-9-6,84,68,53,55,50,41,88,54,23,30.03,29.94,29.84,10,10,10,9,4,,0.00,0,,89
2012-9-7,71,66,59,63,56,45,83,68,53,30.04,29.90,29.77,10,10,10,20,8,32,0.00,3,Rain,13
2012-9-8,78,61,44,46,41,36,82,50,21,30.10,30.02,29.89,10,10,10,18,9,25,0.00,0,,293
2012-9-9,75,60,46,50,45,39,82,57,33,30.20,30.14,30.02,10,10,10,10,7,,0.00,0,,1
2012-9-10,80,65,50,52,46,41,82,54,24,30.19,30.11,30.01,10,10,7,17,8,23,0.00,0,,178
2012-9-11,91,75,59,55,48,36,72,47,15,30.03,29.99,29.94,10,10,7,20,10,26,0.00,0,,182
2012-9-12,89,76,62,59,51,34,77,51,24,30.20,30.06,30.00,10,10,4,17,10,28,0.00,2,,185
2012-9-13,62,55,48,52,47,45,88,79,59,30.39,30.34,30.21,10,10,7,21,10,31,0.20,4,Rain,13
2012-9-14,75,60,44,48,41,30,87,57,20,30.40,30.35,30.30,10,10,7,10,4,,0.00,0,,217
2012-9-15,78,63,48,48,42,30,82,54,17,30.32,30.23,30.13,10,10,7,13,5,18,0.00,0,,175
2012-9-16,75,60,46,59,52,43,88,71,53,30.13,30.04,29.96,10,10,7,12,5,,0.00,1,,198
2012-9-17,69,56,44,61,51,37,88,81,46,29.99,29.94,29.90,10,8,4,21,6,28,0.09,4,Rain,293
2012-9-18,64,52,39,43,33,18,87,54,16,30.08,30.03,29.98,10,10,7,14,7,23,0.00,0,,297
2012-9-19,82,64,46,48,38,25,66,42,17,30.01,29.89,29.76,10,10,7,24,10,30,0.00,0,,208
2012-9-20,71,58,46,37,27,5,66,34,7,30.02,29.97,29.94,10,10,5,21,8,28,0.00,0,,283
2012-9-21,73,60,48,45,39,36,71,50,25,29.95,29.85,29.77,10,10,7,14,4,20,0.00,2,,358
2012-9-22,60,50,39,39,31,25,71,50,27,30.27,30.13,29.87,10,10,10,17,9,28,0.00,0,,314
2012-9-23,64,47,30,32,25,14,86,48,14,30.35,30.28,30.23,10,10,7,15,5,23,0.00,0,,297
2012-9-24,77,58,39,48,32,21,70,42,14,30.24,30.04,29.87,10,10,7,15,5,21,0.00,0,,180
2012-9-25,82,68,53,54,46,37,82,51,20,29.91,29.84,29.80,10,10,7,7,2,,0.00,0,,31
2012-9-26,73,63,53,39,33,18,58,36,12,30.14,30.03,29.90,10,8,2,12,6,,0.00,0,,37
2012-9-27,73,58,44,45,37,28,82,49,19,30.23,30.18,30.14,10,6,1,8,4,,0.00,0,,96
2012-9-28,73,58,44,43,35,27,76,44,19,30.24,30.18,30.14,10,9,4,6,3,,0.00,0,,101
2012-9-29,80,62,44,41,35,27,76,43,14,30.18,30.11,30.02,10,9,2,8,4,,0.00,0,,292
2012-9-30,80,63,46,45,37,28,76,44,15,30.02,29.95,29.89,10,9,1,12,5,,0.00,0,,346